Time;durP1;ratioP1;P1;durP2;ratioP2;P2;SDS_P1;SDS_P2;PMS_P1;PMS_P2;Temp;Humidity;BMP_temperature;BMP_pressure;BME280_temperature;BME280_humidity;BME280_pressure;Samples;Min_cycle;Max_cycle;Signal;HPM_P1;HPM_P2
2022/07/14 00:01:16;;;;;;;10.73;2.30;;;16.50;99.90;;;;;;5043104;28;20040;-63
2022/07/14 00:03:41;;;;;;;9.90;2.30;;;16.40;99.90;;;;;;5043191;28;20040;-62
2022/07/14 00:06:07;;;;;;;11.18;2.28;;;16.40;99.90;;;;;;5053521;28;20021;-64
2022/07/14 00:08:33;;;;;;;6.30;1.90;;;16.40;99.90;;;;;;5046880;28;20073;-64
2022/07/14 00:10:59;;;;;;;9.40;2.10;;;16.30;99.90;;;;;;5048071;28;20037;-63
2022/07/14 00:13:24;;;;;;;6.78;2.05;;;16.30;99.90;;;;;;5052026;28;20048;-63
2022/07/14 00:15:50;;;;;;;6.90;2.20;;;16.20;99.90;;;;;;5038751;28;20037;-63
2022/07/14 00:18:16;;;;;;;9.75;2.60;;;16.20;99.90;;;;;;5033588;28;20573;-64
2022/07/14 00:20:41;;;;;;;9.75;2.55;;;16.10;99.90;;;;;;5045949;28;20076;-64
2022/07/14 00:23:07;;;;;;;10.68;2.45;;;16.10;99.90;;;;;;5050816;28;20045;-64
2022/07/14 00:25:32;;;;;;;8.40;2.30;;;16.00;99.90;;;;;;5050789;28;20036;-64
2022/07/14 00:27:58;;;;;;;13.15;2.85;;;16.00;99.90;;;;;;5044400;28;20087;-62
2022/07/14 00:30:24;;;;;;;9.38;2.35;;;16.00;99.90;;;;;;5039932;28;20534;-64
2022/07/14 00:32:50;;;;;;;9.57;2.47;;;15.90;99.90;;;;;;5046994;28;20372;-64
2022/07/14 00:35:15;;;;;;;9.25;2.95;;;15.90;99.90;;;;;;5040251;28;20033;-63
2022/07/14 00:37:41;;;;;;;13.88;2.72;;;15.90;99.90;;;;;;5045406;28;20072;-64
2022/07/14 00:40:07;;;;;;;7.82;2.35;;;15.80;99.90;;;;;;5036552;28;20470;-63
2022/07/14 00:42:36;;;;;;;10.15;2.08;;;15.80;99.90;;;;;;5032747;28;20164;-64
2022/07/14 00:45:08;;;;;;;7.63;2.15;;;15.70;99.90;;;;;;5040670;28;20422;-64
2022/07/14 00:47:34;;;;;;;10.63;2.53;;;15.70;99.90;;;;;;5051012;28;20514;-64
2022/07/14 00:50:01;;;;;;;8.45;2.63;;;15.70;99.90;;;;;;5051239;28;20037;-63
2022/07/14 00:52:29;;;;;;;11.68;2.63;;;15.60;99.90;;;;;;5040608;28;20029;-62
2022/07/14 00:54:55;;;;;;;9.43;2.58;;;15.60;99.90;;;;;;5044828;28;20579;-64
2022/07/14 00:57:21;;;;;;;9.98;2.33;;;15.60;99.90;;;;;;5044806;28;20501;-63
2022/07/14 00:59:47;;;;;;;9.63;2.35;;;15.50;99.90;;;;;;5042772;28;20033;-64
2022/07/14 01:02:14;;;;;;;10.38;2.45;;;15.50;99.90;;;;;;5040265;28;20055;-62
2022/07/14 01:04:40;;;;;;;9.50;2.67;;;15.50;99.90;;;;;;5035357;28;20034;-63
2022/07/14 01:07:05;;;;;;;9.18;2.33;;;15.40;99.90;;;;;;5048149;28;20029;-64
2022/07/14 01:09:31;;;;;;;8.40;2.33;;;15.40;99.90;;;;;;5044039;28;20037;-62
2022/07/14 01:11:57;;;;;;;5.85;2.50;;;15.30;99.90;;;;;;5047721;28;20025;-64
2022/07/14 01:14:22;;;;;;;8.15;2.05;;;15.30;99.90;;;;;;5039085;28;20045;-63
2022/07/14 01:16:54;;;;;;;9.40;2.47;;;15.20;99.90;;;;;;5044664;28;20049;-63
2022/07/14 01:19:21;;;;;;;;;;;15.20;99.90;;;;;;5050558;28;20045;-64
2022/07/14 01:21:48;;;;;;;9.65;2.25;;;15.20;99.90;;;;;;5043655;28;19917;-63
2022/07/14 01:24:13;;;;;;;9.02;2.47;;;15.20;99.90;;;;;;5047081;28;20068;-63
2022/07/14 01:26:39;;;;;;;8.93;2.20;;;15.20;99.90;;;;;;5044866;28;20537;-60
2022/07/14 01:29:05;;;;;;;6.32;2.17;;;15.20;99.90;;;;;;5037345;28;20033;-64
2022/07/14 01:31:31;;;;;;;3.55;1.42;;;15.10;99.90;;;;;;5039604;28;20483;-63
2022/07/14 01:33:56;;;;;;;5.82;1.55;;;15.00;99.90;;;;;;5049936;28;20037;-63
2022/07/14 01:36:22;;;;;;;3.42;1.20;;;15.00;99.90;;;;;;5050208;28;20110;-63
2022/07/14 01:38:47;;;;;;;2.97;1.30;;;14.90;99.90;;;;;;5043275;28;20036;-63
2022/07/14 01:41:13;;;;;;;4.82;1.70;;;14.90;99.90;;;;;;5049653;28;20053;-63
2022/07/14 01:43:39;;;;;;;4.03;1.73;;;14.90;99.90;;;;;;5035954;28;20125;-63
2022/07/14 01:46:04;;;;;;;8.25;1.88;;;14.80;99.90;;;;;;5040206;28;20064;-63
2022/07/14 01:48:30;;;;;;;4.72;1.77;;;14.70;99.90;;;;;;5047042;28;20033;-63
2022/07/14 01:50:56;;;;;;;4.32;1.70;;;14.60;99.90;;;;;;5040980;28;20107;-64
2022/07/14 01:53:21;;;;;;;5.35;1.77;;;14.70;99.90;;;;;;5033654;28;20044;-63
2022/07/14 01:55:47;;;;;;;3.97;1.55;;;14.60;99.90;;;;;;5037861;28;20056;-64
2022/07/14 01:58:13;;;;;;;4.88;1.50;;;14.60;99.90;;;;;;5041917;28;20110;-63
2022/07/14 02:00:40;;;;;;;4.80;1.63;;;14.60;99.90;;;;;;5045248;28;20098;-64
2022/07/14 02:03:06;;;;;;;3.28;1.60;;;14.50;99.90;;;;;;5031254;28;20515;-64
2022/07/14 02:05:31;;;;;;;3.92;1.95;;;14.50;99.90;;;;;;5039806;28;20034;-64
2022/07/14 02:07:57;;;;;;;6.65;2.00;;;14.40;99.90;;;;;;5034480;28;20056;-63
2022/07/14 02:13:06;;;;;;;6.00;2.10;;;14.40;99.90;;;;;;5049697;28;20068;-63
2022/07/14 02:15:32;;;;;;;5.68;1.98;;;14.40;99.90;;;;;;5039676;28;20057;-63
2022/07/14 02:17:57;;;;;;;6.80;2.60;;;14.30;99.90;;;;;;5037777;28;20085;-63
2022/07/14 02:20:25;;;;;;;6.30;2.10;;;14.30;99.90;;;;;;5046464;28;20029;-62
2022/07/14 02:22:50;;;;;;;7.72;2.40;;;14.30;99.90;;;;;;5042395;28;20119;-63
2022/07/14 02:25:16;;;;;;;4.63;1.70;;;14.30;99.90;;;;;;5038221;28;20518;-63
2022/07/14 02:27:42;;;;;;;4.03;1.60;;;14.30;99.90;;;;;;5035203;28;20032;-63
2022/07/14 02:30:08;;;;;;;5.63;1.60;;;14.30;99.90;;;;;;5042628;28;20380;-63
2022/07/14 02:32:33;;;;;;;3.33;1.27;;;14.20;99.90;;;;;;5046193;28;20065;-62
2022/07/14 02:34:59;;;;;;;2.53;1.55;;;14.20;99.90;;;;;;5034917;28;20081;-63
2022/07/14 02:37:25;;;;;;;4.50;1.50;;;14.20;99.90;;;;;;5040378;28;20036;-63
2022/07/14 02:39:51;;;;;;;1.25;1.10;;;14.10;99.90;;;;;;5038818;28;20120;-64
2022/07/14 02:42:17;;;;;;;3.58;1.20;;;14.10;99.90;;;;;;5047940;28;20056;-63
2022/07/14 02:44:42;;;;;;;5.32;1.63;;;14.00;99.90;;;;;;5045209;28;20036;-64
2022/07/14 02:47:08;;;;;;;5.72;2.10;;;14.00;99.90;;;;;;5044165;28;20048;-64
2022/07/14 02:49:33;;;;;;;3.88;1.88;;;13.90;99.90;;;;;;5037741;28;20029;-64
2022/07/14 02:51:59;;;;;;;5.97;2.08;;;13.90;99.90;;;;;;5043873;28;20028;-64
2022/07/14 02:54:25;;;;;;;7.65;2.40;;;13.90;99.90;;;;;;5044999;28;20037;-64
2022/07/14 02:56:50;;;;;;;4.45;2.10;;;13.80;99.90;;;;;;5042442;28;20045;-64
2022/07/14 02:59:16;;;;;;;3.22;1.55;;;13.80;99.90;;;;;;5041139;28;20406;-64
2022/07/14 03:01:41;;;;;;;3.15;1.60;;;13.70;99.90;;;;;;5046479;28;20041;-64
2022/07/14 03:04:07;;;;;;;1.30;1.20;;;13.70;99.90;;;;;;5038996;28;20043;-64
2022/07/14 03:06:33;;;;;;;4.70;2.00;;;13.60;99.90;;;;;;5038461;28;20063;-63
2022/07/14 03:08:58;;;;;;;6.32;2.38;;;13.60;99.90;;;;;;5030652;28;20063;-62
2022/07/14 03:11:24;;;;;;;5.00;2.40;;;13.60;99.90;;;;;;5042937;28;20033;-64
2022/07/14 03:13:50;;;;;;;4.50;2.22;;;13.50;99.90;;;;;;5065488;22;20037;-62
2022/07/14 03:16:15;;;;;;;6.68;2.42;;;13.50;99.90;;;;;;5050307;28;20511;-62
2022/07/14 03:18:41;;;;;;;4.47;2.20;;;13.50;99.90;;;;;;5047398;28;20078;-61
2022/07/14 03:21:11;;;;;;;3.08;2.20;;;13.50;99.90;;;;;;5041777;28;20112;-62
2022/07/14 03:23:37;;;;;;;3.33;1.70;;;13.40;99.90;;;;;;5032656;28;20041;-62
2022/07/14 03:26:03;;;;;;;5.70;1.80;;;13.40;99.90;;;;;;5050289;28;20232;-62
2022/07/14 03:28:29;;;;;;;3.40;1.80;;;13.40;99.90;;;;;;5032164;28;20044;-62
2022/07/14 03:30:56;;;;;;;6.28;2.50;;;13.30;99.90;;;;;;5050334;28;20526;-62
2022/07/14 03:33:23;;;;;;;3.58;2.03;;;13.30;99.90;;;;;;5032475;28;20041;-62
2022/07/14 03:35:49;;;;;;;5.95;2.38;;;13.30;99.90;;;;;;5050022;28;20040;-62
2022/07/14 03:38:15;;;;;;;5.03;2.22;;;13.30;99.90;;;;;;5032137;28;20115;-62
2022/07/14 03:40:40;;;;;;;7.55;2.83;;;13.30;99.90;;;;;;5049835;28;20033;-62
2022/07/14 03:43:06;;;;;;;4.95;2.90;;;13.30;99.90;;;;;;5048309;28;20044;-62
2022/07/14 03:45:32;;;;;;;9.23;3.55;;;13.30;99.90;;;;;;5033407;28;20037;-62
2022/07/14 03:47:58;;;;;;;10.15;3.75;;;13.30;99.90;;;;;;5048215;28;20041;-62
2022/07/14 03:50:24;;;;;;;8.80;3.28;;;13.30;99.90;;;;;;5042490;28;20103;-62
2022/07/14 03:52:50;;;;;;;9.50;3.00;;;13.30;99.90;;;;;;5047704;28;20038;-61
2022/07/14 03:55:16;;;;;;;6.25;2.90;;;13.30;99.90;;;;;;5052496;28;20410;-62
2022/07/14 03:57:42;;;;;;;6.75;3.00;;;13.30;99.90;;;;;;5030514;28;20121;-62
2022/07/14 04:00:08;;;;;;;6.88;2.83;;;13.30;99.90;;;;;;5048512;28;20033;-62
2022/07/14 04:02:34;;;;;;;6.38;2.63;;;13.20;99.90;;;;;;5049522;28;20037;-62
2022/07/14 04:05:00;;;;;;;3.95;2.30;;;13.30;99.90;;;;;;5050807;28;20043;-62
2022/07/14 04:07:25;;;;;;;5.82;2.30;;;13.20;99.90;;;;;;5045784;28;20029;-62
2022/07/14 04:09:51;;;;;;;5.15;2.80;;;13.20;99.90;;;;;;5051775;28;20036;-62
2022/07/14 04:12:16;;;;;;;5.38;2.45;;;13.10;99.90;;;;;;5052508;28;20060;-62
2022/07/14 04:14:42;;;;;;;5.18;2.00;;;13.10;99.90;;;;;;5034618;28;20456;-62
2022/07/14 04:17:08;;;;;;;4.72;2.25;;;13.10;99.90;;;;;;5044286;28;20064;-62
2022/07/14 04:19:34;;;;;;;6.10;2.30;;;13.00;99.90;;;;;;5051214;28;20524;-62
2022/07/14 04:21:59;;;;;;;6.18;2.17;;;13.00;99.90;;;;;;5016129;28;20045;-62
2022/07/14 04:24:25;;;;;;;6.90;2.42;;;13.00;99.90;;;;;;5046112;28;20447;-62
2022/07/14 04:26:51;;;;;;;6.97;2.60;;;13.00;99.90;;;;;;5028369;28;20075;-62
2022/07/14 04:29:17;;;;;;;5.57;2.85;;;12.90;99.90;;;;;;5038267;28;20069;-62
2022/07/14 04:31:43;;;;;;;5.75;2.50;;;12.90;99.90;;;;;;5038583;28;20152;-61
2022/07/14 04:34:08;;;;;;;7.85;2.90;;;12.90;99.90;;;;;;5045611;28;20182;-62
2022/07/14 04:36:34;;;;;;;8.00;3.08;;;13.00;99.90;;;;;;5034416;28;20052;-62
2022/07/14 04:39:00;;;;;;;8.20;3.25;;;13.00;99.90;;;;;;5046379;28;20049;-62
2022/07/14 04:41:26;;;;;;;5.45;2.90;;;13.00;99.90;;;;;;5046413;28;20087;-63
2022/07/14 04:43:52;;;;;;;7.63;3.00;;;13.00;99.90;;;;;;5031404;28;20037;-63
2022/07/14 04:46:18;;;;;;;9.95;4.43;;;13.10;99.90;;;;;;5028251;28;20047;-64
2022/07/14 04:54:12;;;;;;;10.35;3.50;;;13.10;99.90;;;;;;5049123;28;20041;-64
2022/07/14 04:56:38;;;;;;;10.43;3.50;;;13.20;99.90;;;;;;5031575;28;20411;-64
2022/07/14 04:59:03;;;;;;;8.25;3.35;;;13.10;99.90;;;;;;5051712;28;20033;-63
2022/07/14 05:01:29;;;;;;;10.05;3.53;;;13.20;99.90;;;;;;5047990;28;20040;-63
2022/07/14 05:03:55;;;;;;;7.97;3.45;;;13.20;99.90;;;;;;5051950;28;20098;-63
2022/07/14 05:06:20;;;;;;;7.40;4.07;;;13.30;99.90;;;;;;5029363;28;20474;-64
2022/07/14 05:08:46;;;;;;;8.70;3.58;;;13.30;99.90;;;;;;5050782;28;20059;-64
2022/07/14 05:11:11;;;;;;;8.73;3.72;;;13.30;99.90;;;;;;5046150;28;20091;-64
2022/07/14 05:13:38;;;;;;;10.60;3.70;;;13.30;99.90;;;;;;5025517;28;20041;-64
2022/07/14 05:16:04;;;;;;;8.60;4.10;;;13.30;99.90;;;;;;5047231;28;20033;-64
2022/07/14 05:18:30;;;;;;;9.63;4.43;;;13.40;99.90;;;;;;5034061;28;20032;-64
2022/07/14 05:20:55;;;;;;;12.70;5.07;;;13.40;99.90;;;;;;5032803;28;20086;-64
2022/07/14 05:23:21;;;;;;;14.23;5.05;;;13.40;99.90;;;;;;5046583;28;20032;-64
2022/07/14 05:25:48;;;;;;;13.68;5.18;;;13.50;99.90;;;;;;5023146;28;20033;-63
2022/07/14 05:28:13;;;;;;;9.38;4.43;;;13.50;99.90;;;;;;5024524;28;20041;-63
2022/07/14 05:30:39;;;;;;;10.88;4.57;;;13.60;99.90;;;;;;5048696;28;20040;-63
2022/07/14 05:33:05;;;;;;;13.15;4.80;;;13.70;99.90;;;;;;5044897;28;20025;-63
2022/07/14 05:35:30;;;;;;;12.40;4.88;;;13.70;99.90;;;;;;5032008;28;20116;-63
2022/07/14 05:37:56;;;;;;;15.07;4.90;;;13.80;99.90;;;;;;5043280;28;20037;-63
2022/07/14 05:40:24;;;;;;;14.15;5.03;;;13.80;99.90;;;;;;5039075;28;20052;-63
2022/07/14 05:42:50;;;;;;;11.23;4.75;;;13.80;99.90;;;;;;5041343;28;20033;-63
2022/07/14 05:45:15;;;;;;;13.43;4.93;;;13.90;99.90;;;;;;5028692;28;20422;-63
2022/07/14 05:47:42;;;;;;;12.68;5.07;;;14.00;99.90;;;;;;5048707;28;20028;-63
2022/07/14 05:50:09;;;;;;;12.65;4.78;;;14.10;99.90;;;;;;5045967;28;20112;-64
2022/07/14 05:52:34;;;;;;;11.30;4.57;;;14.10;99.90;;;;;;5044315;28;20040;-63
2022/07/14 05:55:00;;;;;;;10.93;4.68;;;14.20;99.90;;;;;;5036605;28;20082;-64
2022/07/14 05:57:27;;;;;;;10.23;4.43;;;14.20;99.90;;;;;;5050098;28;20445;-63
2022/07/14 05:59:52;;;;;;;12.45;4.10;;;14.30;99.90;;;;;;5039992;28;20037;-63
2022/07/14 06:02:18;;;;;;;10.20;3.65;;;14.30;99.90;;;;;;5048325;28;20041;-64
2022/07/14 06:04:44;;;;;;;10.35;3.63;;;14.50;99.90;;;;;;5047314;28;20056;-63
2022/07/14 06:07:09;;;;;;;10.45;3.45;;;14.50;99.90;;;;;;5041101;28;20053;-63
2022/07/14 06:09:36;;;;;;;11.75;3.00;;;14.70;99.90;;;;;;5042390;28;20082;-63
2022/07/14 06:12:05;;;;;;;9.82;3.17;;;14.90;99.90;;;;;;5027168;28;20041;-64
2022/07/14 06:14:31;;;;;;;9.88;2.33;;;15.00;99.90;;;;;;5048558;28;20094;-63
2022/07/14 06:16:57;;;;;;;9.15;2.63;;;15.20;99.90;;;;;;5028789;28;20041;-64
2022/07/14 06:19:23;;;;;;;9.23;2.50;;;15.30;99.90;;;;;;5045779;28;20128;-63
2022/07/14 06:21:48;;;;;;;8.98;2.38;;;15.50;99.90;;;;;;5043448;28;20029;-63
2022/07/14 06:24:14;;;;;;;7.85;2.40;;;15.60;99.90;;;;;;5026667;28;20040;-63
2022/07/14 06:26:40;;;;;;;8.80;2.10;;;15.80;99.90;;;;;;5043515;28;20041;-64
2022/07/14 06:29:06;;;;;;;10.23;2.50;;;15.90;99.90;;;;;;5038560;28;20033;-63
2022/07/14 06:31:34;;;;;;;7.13;2.00;;;16.00;99.90;;;;;;5024169;28;20068;-64
2022/07/14 06:34:00;;;;;;;6.68;1.90;;;16.10;99.90;;;;;;5044516;28;20148;-63
2022/07/14 06:36:26;;;;;;;7.63;2.08;;;16.10;99.90;;;;;;5046175;28;20124;-64
2022/07/14 06:38:52;;;;;;;9.98;2.28;;;16.10;99.90;;;;;;5042778;28;20115;-64
2022/07/14 06:41:20;;;;;;;9.27;2.03;;;16.10;99.90;;;;;;5037178;28;20041;-61
2022/07/14 06:43:46;;;;;;;8.57;2.00;;;16.10;99.90;;;;;;5037875;28;20037;-62
2022/07/14 06:46:16;;;;;;;10.38;1.90;;;16.20;99.90;;;;;;5037304;28;20037;-62
2022/07/14 06:48:42;;;;;;;7.82;2.15;;;16.20;99.90;;;;;;5032215;28;20041;-62
2022/07/14 06:51:08;;;;;;;11.27;2.28;;;16.30;99.90;;;;;;5048904;28;20075;-61
2022/07/14 06:53:34;;;;;;;8.55;2.10;;;16.30;99.90;;;;;;5045291;28;20036;-62
2022/07/14 06:55:59;;;;;;;10.55;2.75;;;16.30;99.90;;;;;;5049990;28;20087;-62
2022/07/14 06:58:25;;;;;;;10.93;2.58;;;16.30;99.90;;;;;;5031343;28;20045;-64
2022/07/14 07:00:51;;;;;;;12.35;2.50;;;16.20;99.90;;;;;;5045579;28;20079;-65
2022/07/14 07:03:16;;;;;;;14.45;2.60;;;16.20;99.90;;;;;;5040505;28;20079;-61
2022/07/14 07:08:28;;;;;;;7.57;1.85;;;16.10;99.90;;;;;;5024349;28;20457;-62
2022/07/14 07:10:56;;;;;;;7.65;2.30;;;16.20;99.90;;;;;;5045230;28;20041;-65
2022/07/14 07:13:22;;;;;;;7.07;2.30;;;16.30;99.90;;;;;;5043607;28;20037;-61
2022/07/14 07:15:48;;;;;;;10.48;2.35;;;16.40;99.90;;;;;;5042448;28;20041;-62
2022/07/14 07:18:13;;;;;;;13.00;2.20;;;16.40;99.90;;;;;;5045436;28;20555;-64
2022/07/14 07:20:39;;;;;;;5.22;2.35;;;16.50;99.90;;;;;;5046664;28;20041;-64
2022/07/14 07:23:05;;;;;;;7.75;2.17;;;16.60;99.90;;;;;;5032585;28;20640;-62
2022/07/14 07:25:32;;;;;;;8.57;2.33;;;16.70;99.90;;;;;;5032751;28;20076;-61
2022/07/14 07:27:59;;;;;;;7.65;2.20;;;16.70;99.90;;;;;;5043147;28;20061;-67
2022/07/14 07:30:25;;;;;;;13.48;2.25;;;16.80;99.90;;;;;;5039664;28;20033;-63
2022/07/14 07:32:50;;;;;;;6.85;1.77;;;16.90;99.90;;;;;;5045674;28;20036;-62
2022/07/14 07:35:16;;;;;;;6.05;1.60;;;16.90;99.90;;;;;;5048878;28;20423;-64
2022/07/14 07:37:42;;;;;;;6.00;1.88;;;16.90;99.90;;;;;;5048023;28;20032;-66
2022/07/14 07:40:08;;;;;;;5.97;1.60;;;16.90;99.90;;;;;;5034364;28;20110;-64
2022/07/14 07:42:34;;;;;;;7.57;2.00;;;17.00;99.90;;;;;;5033785;28;20051;-67
2022/07/14 07:45:00;;;;;;;10.95;2.00;;;17.00;99.90;;;;;;5033729;28;20407;-62
2022/07/14 07:47:26;;;;;;;8.82;2.05;;;17.00;99.90;;;;;;5024438;28;20032;-67
2022/07/14 07:49:53;;;;;;;5.30;1.45;;;17.10;99.90;;;;;;5053273;28;20449;-65
2022/07/14 07:52:20;;;;;;;4.70;1.70;;;17.10;99.90;;;;;;5050684;28;20037;-64
2022/07/14 07:54:46;;;;;;;10.93;2.03;;;17.10;99.90;;;;;;5034942;28;20044;-67
2022/07/14 07:57:12;;;;;;;10.27;2.00;;;17.20;99.90;;;;;;5052667;28;20487;-61
2022/07/14 07:59:38;;;;;;;8.85;1.58;;;17.30;99.90;;;;;;5027883;28;20115;-61
2022/07/14 08:02:04;;;;;;;4.38;1.30;;;17.30;99.90;;;;;;5035276;28;20033;-61
2022/07/14 08:04:32;;;;;;;9.10;1.80;;;17.40;99.90;;;;;;5049163;28;20071;-61
2022/07/14 08:06:57;;;;;;;8.48;1.55;;;17.40;99.90;;;;;;5053336;28;20415;-64
2022/07/14 08:09:23;;;;;;;4.65;1.25;;;17.40;99.90;;;;;;5041415;28;20038;-62
2022/07/14 08:11:49;;;;;;;9.70;1.60;;;17.40;99.90;;;;;;5031205;28;20114;-66
2022/07/14 08:16:59;;;;;;;6.22;1.30;;;17.50;99.90;;;;;;5041319;28;20320;-63
2022/07/14 08:19:25;;;;;;;4.05;1.33;;;17.60;99.90;;;;;;5045176;28;20037;-61
2022/07/14 08:21:51;;;;;;;8.52;1.80;;;17.70;99.90;;;;;;5034878;28;20045;-61
2022/07/14 08:24:19;;;;;;;6.90;1.42;;;17.80;99.90;;;;;;5045320;28;20044;-61
2022/07/14 08:26:46;;;;;;;5.65;1.52;;;17.80;99.90;;;;;;5053115;28;20071;-61
2022/07/14 08:29:12;;;;;;;5.03;1.30;;;17.90;99.90;;;;;;5032974;28;20033;-62
2022/07/14 08:31:38;;;;;;;5.03;1.60;;;18.10;99.90;;;;;;5038417;28;20028;-62
2022/07/14 08:34:04;;;;;;;4.13;1.10;;;18.30;99.90;;;;;;5052486;28;20124;-63
2022/07/14 08:36:30;;;;;;;8.25;1.67;;;18.60;99.90;;;;;;5052707;28;20029;-63
2022/07/14 08:38:56;;;;;;;8.05;1.83;;;19.10;99.90;;;;;;5052359;28;20503;-62
2022/07/14 08:41:22;;;;;;;5.07;1.23;;;19.40;99.90;;;;;;5034944;28;20079;-63
2022/07/14 08:43:48;;;;;;;4.25;1.20;;;19.80;99.90;;;;;;5051709;28;20041;-63
2022/07/14 08:46:15;;;;;;;8.32;1.27;;;20.10;99.90;;;;;;5052629;28;20037;-61
2022/07/14 08:48:41;;;;;;;3.83;1.25;;;20.20;99.90;;;;;;5052493;28;20402;-62
2022/07/14 08:51:08;;;;;;;5.38;1.25;;;20.30;99.90;;;;;;5050534;28;20029;-62
2022/07/14 08:53:35;;;;;;;5.57;1.55;;;20.30;99.90;;;;;;5034775;28;20049;-63
2022/07/14 08:56:01;;;;;;;4.95;1.20;;;20.40;99.90;;;;;;5034532;28;20054;-62
2022/07/14 08:58:26;;;;;;;4.93;1.20;;;20.50;99.90;;;;;;5052041;28;20520;-62
2022/07/14 09:00:52;;;;;;;4.13;1.08;;;20.70;99.90;;;;;;5035020;28;20080;-65
2022/07/14 09:03:18;;;;;;;3.22;1.10;;;20.90;99.60;;;;;;5049241;28;20175;-66
2022/07/14 09:05:45;;;;;;;3.67;1.02;;;21.30;99.00;;;;;;5025081;28;20043;-62
2022/07/14 09:08:12;;;;;;;2.35;1.05;;;21.50;97.60;;;;;;5049289;28;20041;-65
2022/07/14 09:10:39;;;;;;;2.08;0.90;;;21.80;96.50;;;;;;5041387;28;20063;-62
2022/07/14 09:13:10;;;;;;;2.63;0.95;;;22.10;96.30;;;;;;5034185;28;20037;-62
2022/07/14 09:15:54;;;;;;;3.42;0.90;;;22.30;94.10;;;;;;5043342;28;20033;-62
2022/07/14 09:18:27;;;;;;;1.92;0.82;;;22.60;93.50;;;;;;5023818;28;20044;-62
2022/07/14 09:20:57;;;;;;;3.95;1.10;;;22.80;92.80;;;;;;5048199;28;20476;-67
2022/07/14 09:23:27;;;;;;;3.70;1.00;;;22.80;92.00;;;;;;5036081;28;20033;-62
2022/07/14 09:26:11;;;;;;;4.60;1.20;;;22.80;91.80;;;;;;5040802;28;20398;-69
2022/07/14 09:28:41;;;;;;;3.60;1.20;;;22.90;89.30;;;;;;5044151;28;20049;-65
2022/07/14 09:31:28;;;;;;;3.50;1.02;;;22.80;91.40;;;;;;5027287;28;20048;-68
2022/07/14 09:33:55;;;;;;;7.20;1.30;;;22.80;91.00;;;;;;5021303;28;20483;-64
2022/07/14 09:36:30;;;;;;;4.15;1.13;;;22.60;91.50;;;;;;5043186;28;20491;-65
2022/07/14 09:39:10;;;;;;;2.95;1.00;;;22.40;90.90;;;;;;5030663;28;20201;-62
2022/07/14 09:41:49;;;;;;;2.90;1.10;;;22.40;91.20;;;;;;5026537;28;20041;-62
2022/07/14 09:44:19;;;;;;;3.60;1.02;;;22.40;91.90;;;;;;5041325;28;20171;-62
2022/07/14 09:47:03;;;;;;;3.38;1.10;;;22.40;91.60;;;;;;5046872;28;20212;-69
2022/07/14 09:49:32;;;;;;;5.72;1.10;;;22.30;90.90;;;;;;5036573;28;20037;-62
2022/07/14 09:52:04;;;;;;;3.05;1.10;;;22.20;91.90;;;;;;5045481;28;20032;-70
2022/07/14 09:54:44;;;;;;;3.70;1.13;;;22.20;91.40;;;;;;5049928;28;20041;-61
2022/07/14 09:57:13;;;;;;;2.90;1.10;;;22.20;91.20;;;;;;5049964;28;20105;-64
2022/07/14 09:59:47;;;;;;;3.40;1.13;;;22.20;91.50;;;;;;5032926;28;20043;-65
2022/07/14 10:02:21;;;;;;;2.35;1.20;;;22.00;91.10;;;;;;5014965;28;20066;-62
2022/07/14 10:04:48;;;;;;;3.35;1.10;;;22.00;91.50;;;;;;5058057;28;20024;-63
2022/07/14 10:07:16;;;;;;;4.53;1.20;;;22.00;91.80;;;;;;5052341;28;20163;-69
2022/07/14 10:10:03;;;;;;;3.42;1.10;;;21.90;91.90;;;;;;5039197;28;20451;-62
2022/07/14 10:12:29;;;;;;;3.33;0.93;;;21.90;91.20;;;;;;5034836;28;20490;-62
2022/07/14 10:14:59;;;;;;;5.50;1.10;;;21.90;91.70;;;;;;5023920;28;20047;-62
2022/07/14 10:17:27;;;;;;;3.47;0.90;;;21.90;91.70;;;;;;5026691;28;20116;-62
2022/07/14 10:19:54;;;;;;;3.67;1.00;;;21.90;91.50;;;;;;5033050;28;20049;-62
2022/07/14 10:22:20;;;;;;;3.40;1.10;;;22.00;91.70;;;;;;5044992;28;20043;-62
2022/07/14 10:24:49;;;;;;;5.75;1.17;;;21.90;91.40;;;;;;5047178;28;20363;-63
2022/07/14 10:27:18;;;;;;;4.15;1.10;;;21.90;91.00;;;;;;5025739;28;20052;-65
2022/07/14 10:29:51;;;;;;;3.08;1.00;;;21.90;91.10;;;;;;5032846;28;20491;-62
2022/07/14 10:32:50;;;;;;;2.35;1.00;;;21.90;90.80;;;;;;5041835;28;20030;-67
2022/07/14 10:35:43;;;;;;;1.90;0.88;;;21.90;90.60;;;;;;5031560;28;20053;-62
2022/07/14 10:38:31;;;;;;;3.03;0.88;;;21.90;90.70;;;;;;5031627;28;20048;-66
2022/07/14 10:41:15;;;;;;;2.17;0.90;;;21.90;90.60;;;;;;5032557;28;20119;-63
2022/07/14 10:44:03;;;;;;;3.70;1.00;;;21.90;91.00;;;;;;5040213;28;20048;-64
2022/07/14 10:46:37;;;;;;;4.78;1.15;;;22.00;91.20;;;;;;5047756;28;20433;-66
2022/07/14 10:49:08;;;;;;;2.53;0.90;;;22.00;91.40;;;;;;5045999;28;20037;-67
2022/07/14 10:51:45;;;;;;;3.22;0.88;;;22.00;91.30;;;;;;5047940;28;20040;-64
2022/07/14 10:54:28;;;;;;;3.15;1.30;;;22.00;91.30;;;;;;5042156;28;20074;-62
2022/07/14 10:57:18;;;;;;;3.42;0.90;;;22.00;91.30;;;;;;5040103;28;20087;-63
2022/07/14 10:59:47;;;;;;;2.03;0.90;;;22.00;91.30;;;;;;5025584;28;20037;-64
2022/07/14 11:02:13;;;;;;;3.40;1.10;;;22.00;91.50;;;;;;5041898;28;20466;-62
2022/07/14 11:04:59;;;;;;;4.82;1.40;;;22.00;91.60;;;;;;5030841;28;20077;-62
2022/07/14 11:07:46;;;;;;;4.15;1.02;;;22.00;91.40;;;;;;5021909;28;20047;-62
2022/07/14 11:10:21;;;;;;;2.75;1.00;;;22.10;91.30;;;;;;5028415;28;20090;-62
2022/07/14 11:13:04;;;;;;;3.30;0.80;;;22.10;91.30;;;;;;5044887;28;20037;-62
2022/07/14 11:15:38;;;;;;;3.00;1.20;;;22.00;91.00;;;;;;5024551;28;20045;-67
2022/07/14 11:18:18;;;;;;;2.58;1.05;;;22.00;91.30;;;;;;5043325;28;20392;-62
2022/07/14 11:21:13;;;;;;;5.28;1.42;;;22.00;91.40;;;;;;5019872;28;20048;-65
2022/07/14 11:23:50;;;;;;;4.47;0.95;;;21.90;91.80;;;;;;5047870;28;20040;-62
2022/07/14 11:26:41;;;;;;;3.45;1.10;;;21.90;91.70;;;;;;5047068;28;20051;-62
2022/07/14 11:29:11;;;;;;;3.03;0.95;;;21.90;91.70;;;;;;5047487;28;20035;-62
2022/07/14 11:31:49;;;;;;;3.83;0.93;;;21.90;91.70;;;;;;5025881;28;20045;-62
2022/07/14 11:37:07;;;;;;;;;;;21.80;91.90;;;;;;5049234;28;20525;-64
2022/07/14 11:39:38;;;;;;;2.13;1.00;;;21.80;91.80;;;;;;5022415;28;20007;-63
2022/07/14 11:42:14;;;;;;;2.63;1.00;;;21.80;92.10;;;;;;5041189;28;20039;-61
2022/07/14 11:44:40;;;;;;;2.45;0.98;;;21.80;92.10;;;;;;5035039;28;20041;-61
2022/07/14 11:47:05;;;;;;;3.00;0.80;;;21.90;92.10;;;;;;5031027;28;20032;-66
2022/07/14 11:49:33;;;;;;;2.00;0.95;;;22.00;92.00;;;;;;5043278;28;20039;-64
2022/07/14 11:52:00;;;;;;;2.95;0.98;;;22.10;92.00;;;;;;5045768;28;20041;-67
2022/07/14 11:54:26;;;;;;;2.78;0.90;;;22.10;92.00;;;;;;5038337;28;20618;-62
2022/07/14 11:57:11;;;;;;;3.25;1.00;;;22.20;92.00;;;;;;5027564;28;20060;-62
2022/07/14 11:59:40;;;;;;;6.78;1.17;;;22.20;92.20;;;;;;5024848;28;20221;-61
2022/07/14 12:02:12;;;;;;;2.83;0.80;;;22.30;92.40;;;;;;5031479;28;20025;-61
2022/07/14 12:04:52;;;;;;;;;;;22.30;92.50;;;;;;5049419;28;20075;-62
2022/07/14 12:07:23;;;;;;;3.13;0.90;;;22.30;92.40;;;;;;5030601;28;19923;-63
2022/07/14 12:09:49;;;;;;;3.22;1.17;;;22.30;92.60;;;;;;5052530;28;20060;-61
2022/07/14 12:12:16;;;;;;;2.38;0.90;;;22.60;92.60;;;;;;5039398;28;20078;-61
2022/07/14 12:14:49;;;;;;;3.67;1.00;;;22.90;92.60;;;;;;5047142;28;20093;-62
2022/07/14 12:17:16;;;;;;;2.88;1.02;;;23.30;92.10;;;;;;5038158;28;20115;-64
2022/07/14 12:19:42;;;;;;;2.75;0.88;;;23.50;91.30;;;;;;5052128;28;20037;-63
2022/07/14 12:22:08;;;;;;;3.72;1.00;;;23.60;91.30;;;;;;5042896;28;20040;-63
2022/07/14 12:24:34;;;;;;;2.42;0.88;;;23.80;90.90;;;;;;5043976;28;20041;-62
2022/07/14 12:27:06;;;;;;;7.25;1.40;;;24.00;90.60;;;;;;5025766;28;20376;-62
2022/07/14 12:29:33;;;;;;;4.07;1.20;;;24.30;90.40;;;;;;5031312;28;20048;-63
2022/07/14 12:32:00;;;;;;;6.07;1.05;;;24.60;90.30;;;;;;5048986;28;20037;-61
2022/07/14 12:34:30;;;;;;;2.75;0.90;;;25.00;89.90;;;;;;5049387;28;20052;-67
2022/07/14 12:37:01;;;;;;;3.55;1.00;;;25.40;87.30;;;;;;5051859;28;20086;-64
2022/07/14 12:39:28;;;;;;;2.92;1.00;;;25.50;82.20;;;;;;5029944;28;20124;-62
2022/07/14 12:41:55;;;;;;;3.75;1.00;;;25.30;80.70;;;;;;5034359;28;20487;-64
2022/07/14 12:44:21;;;;;;;2.28;0.88;;;25.20;79.80;;;;;;5025822;28;20052;-62
2022/07/14 12:47:05;;;;;;;2.97;0.90;;;25.10;78.70;;;;;;5034309;28;20033;-63
2022/07/14 12:49:42;;;;;;;3.35;1.00;;;25.10;77.00;;;;;;5050483;28;20063;-65
2022/07/14 12:52:07;;;;;;;2.92;0.95;;;25.10;77.20;;;;;;5050753;28;20037;-61
2022/07/14 12:54:34;;;;;;;1.73;0.85;;;25.10;78.90;;;;;;5029421;28;20077;-62
2022/07/14 12:57:00;;;;;;;5.47;1.10;;;25.20;79.70;;;;;;5030736;28;20040;-62
2022/07/14 12:59:35;;;;;;;1.85;0.80;;;25.00;79.50;;;;;;5051374;28;20148;-61
2022/07/14 13:02:00;;;;;;;1.10;0.70;;;24.90;78.90;;;;;;5050251;28;20041;-67
2022/07/14 13:04:37;;;;;;;2.97;0.88;;;24.70;79.60;;;;;;5034226;28;20044;-61
2022/07/14 13:07:18;;;;;;;3.35;1.13;;;24.50;79.40;;;;;;5024471;28;20037;-61